Time;durP1;ratioP1;P1;durP2;ratioP2;P2;SDS_P1;SDS_P2;PMS_P1;PMS_P2;Temp;Humidity;BMP_temperature;BMP_pressure;BME280_temperature;BME280_humidity;BME280_pressure;Samples;Min_cycle;Max_cycle;Signal;HPM_P1;HPM_P2
2021/05/30 00:02:13;;;;;;;441.53;247.17;;;;;;;10.39;70.81;99171.22;5056373;28;20361;-61
2021/05/30 00:04:39;;;;;;;440.57;252.90;;;;;;;10.41;70.55;99169.47;5055431;28;20025;-62
2021/05/30 00:07:05;;;;;;;443.63;258.97;;;;;;;10.44;69.76;99172.00;5053364;28;20293;-62
2021/05/30 00:09:31;;;;;;;440.60;255.47;;;;;;;10.50;69.70;99167.66;5053258;28;20556;-62
2021/05/30 00:11:56;;;;;;;439.20;260.03;;;;;;;10.48;70.06;99163.44;5054907;28;20295;-62
2021/05/30 00:14:22;;;;;;;437.43;249.77;;;;;;;10.46;70.06;99163.44;5055765;28;20214;-62
2021/05/30 00:16:48;;;;;;;439.27;256.77;;;;;;;10.38;69.63;99149.84;5055552;28;20032;-61
2021/05/30 00:19:14;;;;;;;443.90;262.30;;;;;;;10.46;69.42;99160.03;5054562;28;20098;-62
2021/05/30 00:21:39;;;;;;;437.23;251.20;;;;;;;10.40;69.73;99158.34;5054279;28;20017;-62
2021/05/30 00:24:06;;;;;;;440.93;260.30;;;;;;;10.41;68.98;99143.84;5054439;28;20283;-62
2021/05/30 00:26:31;;;;;;;441.10;254.50;;;;;;;10.41;69.37;99151.53;5054817;28;20039;-63
2021/05/30 00:28:57;;;;;;;436.50;243.80;;;;;;;10.36;69.34;99143.88;5056456;28;20524;-62
2021/05/30 00:31:22;;;;;;;441.20;251.97;;;;;;;10.33;68.90;99145.63;5054814;28;20048;-62
2021/05/30 00:33:48;;;;;;;435.60;244.20;;;;;;;10.24;69.45;99151.69;5053436;28;20297;-62
2021/05/30 00:36:13;;;;;;;438.57;255.13;;;;;;;10.12;70.09;99138.09;5054427;28;20025;-61
2021/05/30 00:38:39;;;;;;;437.37;250.87;;;;;;;10.12;69.91;99145.78;5054789;28;20369;-61
2021/05/30 00:41:04;;;;;;;437.87;248.23;;;;;;;10.03;70.27;99139.03;5055846;28;20020;-62
2021/05/30 00:43:30;;;;;;;432.97;241.00;;;;;;;9.95;71.19;99151.91;5053338;28;20373;-62
2021/05/30 00:45:55;;;;;;;436.80;243.03;;;;;;;9.91;70.85;99145.13;5054990;28;20036;-62
2021/05/30 00:48:21;;;;;;;434.67;240.03;;;;;;;9.88;71.21;99150.28;5051057;28;20320;-62
2021/05/30 00:50:47;;;;;;;434.20;243.60;;;;;;;9.84;71.50;99150.31;5048329;28;20392;-61
2021/05/30 00:53:17;;;;;;;432.57;235.27;;;;;;;9.76;72.21;99140.09;5048414;28;20044;-61
2021/05/30 00:55:43;;;;;;;432.97;235.70;;;;;;;9.72;72.01;99137.59;5047822;28;20774;-62
2021/05/30 00:58:08;;;;;;;429.33;230.77;;;;;;;9.62;72.76;99140.22;5047346;28;20656;-62
2021/05/30 01:00:34;;;;;;;439.47;238.97;;;;;;;9.67;72.38;99124.84;5045717;28;20294;-62
2021/05/30 01:02:59;;;;;;;432.53;232.53;;;;;;;9.68;73.02;99129.06;5046340;28;20109;-62
2021/05/30 01:05:24;;;;;;;433.60;230.17;;;;;;;9.69;72.58;99130.78;5045577;28;20033;-62
2021/05/30 01:07:50;;;;;;;434.27;230.33;;;;;;;9.68;73.02;99131.63;5046937;28;20355;-62
2021/05/30 01:10:33;;;;;;;431.93;238.63;;;;;;;9.77;72.72;99129.00;5049579;28;20107;-62
2021/05/30 01:12:59;;;;;;;433.37;236.90;;;;;;;9.82;72.10;99126.41;5046025;28;20061;-62
2021/05/30 01:15:26;;;;;;;428.33;224.53;;;;;;;9.81;72.68;99124.69;5045119;28;20318;-63
2021/05/30 01:17:54;;;;;;;434.17;235.57;;;;;;;9.84;72.24;99127.25;5048978;28;20338;-63
2021/05/30 01:20:21;;;;;;;430.27;224.20;;;;;;;9.81;72.19;99133.25;5044019;28;20327;-62
2021/05/30 01:22:48;;;;;;;434.63;232.90;;;;;;;9.77;72.65;99134.13;5047443;28;20290;-61
2021/05/30 01:25:16;;;;;;;432.80;236.83;;;;;;;9.84;71.90;99140.91;5046961;28;20295;-61
2021/05/30 01:27:42;;;;;;;433.87;230.83;;;;;;;9.74;72.16;99136.72;5048479;28;20660;-61
2021/05/30 01:30:10;;;;;;;437.10;234.43;;;;;;;9.71;72.87;99139.31;5044104;28;20263;-62
2021/05/30 01:32:35;;;;;;;427.73;224.03;;;;;;;9.72;72.52;99140.16;5047433;28;20022;-62
2021/05/30 01:35:02;;;;;;;434.10;233.87;;;;;;;9.71;72.53;99138.47;5045221;28;20309;-62
2021/05/30 01:37:27;;;;;;;437.00;239.20;;;;;;;9.70;72.35;99140.16;5048750;28;20040;-62
2021/05/30 01:39:53;;;;;;;433.10;230.30;;;;;;;9.67;72.94;99141.91;5047267;28;20268;-62
2021/05/30 01:42:18;;;;;;;432.60;231.70;;;;;;;9.67;72.15;99136.78;5045675;28;20036;-62
2021/05/30 01:44:44;;;;;;;429.93;225.87;;;;;;;9.70;72.35;99142.72;5045628;28;20028;-62
2021/05/30 01:47:09;;;;;;;436.50;236.77;;;;;;;9.67;72.18;99118.84;5046469;28;20304;-62
2021/05/30 01:49:36;;;;;;;426.70;223.20;;;;;;;9.74;71.92;99138.44;5048462;28;20053;-62
2021/05/30 01:52:03;;;;;;;429.13;224.50;;;;;;;9.67;72.56;99137.63;5047082;28;20075;-62
2021/05/30 01:54:29;;;;;;;427.50;222.83;;;;;;;9.63;72.64;99136.78;5045417;28;20728;-62
2021/05/30 01:56:57;;;;;;;434.77;230.70;;;;;;;9.66;72.07;99128.25;5044264;28;20251;-62
2021/05/30 01:59:27;;;;;;;428.63;225.87;;;;;;;9.60;73.09;99120.59;5046439;28;20029;-62
2021/05/30 02:01:55;;;;;;;433.83;228.83;;;;;;;9.66;72.28;99130.81;5045928;28;20284;-62
2021/05/30 02:04:24;;;;;;;438.03;240.27;;;;;;;9.65;72.53;99129.09;5043822;28;20276;-61
2021/05/30 02:06:50;;;;;;;431.90;227.50;;;;;;;9.58;72.55;99118.06;5044836;28;20345;-62
2021/05/30 02:09:17;;;;;;;428.50;219.73;;;;;;;9.71;72.45;99129.06;5044165;28;20259;-61
2021/05/30 02:11:42;;;;;;;431.40;228.27;;;;;;;9.68;72.32;99115.41;5045691;28;20573;-62
2021/05/30 02:14:08;;;;;;;432.80;229.83;;;;;;;9.73;72.00;99119.66;5048103;28;20298;-61
2021/05/30 02:16:38;;;;;;;434.07;235.17;;;;;;;9.85;72.37;99132.34;5049909;28;20290;-62
2021/05/30 02:19:04;;;;;;;432.33;236.00;;;;;;;9.85;71.20;99127.22;5050566;28;20272;-61
2021/05/30 02:21:44;;;;;;;431.80;228.13;;;;;;;9.89;71.23;99128.91;5049383;28;20268;-60
2021/05/30 02:24:11;;;;;;;428.47;223.33;;;;;;;9.83;71.59;99128.97;5053348;28;20029;-61
2021/05/30 02:26:37;;;;;;;431.00;230.57;;;;;;;9.81;71.33;99130.69;5048162;28;20271;-61
2021/05/30 02:29:04;;;;;;;430.20;231.43;;;;;;;9.81;71.79;99124.69;5049677;28;20278;-61
2021/05/30 02:31:29;;;;;;;433.53;234.83;;;;;;;9.81;72.07;99125.56;5050611;28;20037;-61
2021/05/30 02:33:55;;;;;;;432.10;236.63;;;;;;;9.79;71.38;99132.41;5050707;28;20321;-61
2021/05/30 02:36:20;;;;;;;434.50;233.43;;;;;;;9.84;70.83;99133.25;5051246;28;20032;-60
2021/05/30 02:38:46;;;;;;;434.13;233.83;;;;;;;9.81;71.44;99129.81;5051215;28;20036;-60
2021/05/30 02:41:11;;;;;;;428.67;220.23;;;;;;;9.87;70.58;99137.47;5051456;28;20143;-60
2021/05/30 02:43:36;;;;;;;430.67;225.47;;;;;;;9.85;71.03;99140.03;5047592;28;20025;-60
2021/05/30 02:46:02;;;;;;;433.20;231.43;;;;;;;9.85;70.63;99140.03;5037425;28;20025;-61
2021/05/30 02:48:28;;;;;;;434.33;238.43;;;;;;;9.88;70.85;99136.63;5048134;28;20460;-62
2021/05/30 02:51:00;;;;;;;431.20;234.63;;;;;;;9.85;71.01;99132.34;5052999;28;20055;-61
2021/05/30 02:53:34;;;;;;;436.57;245.60;;;;;;;9.92;70.40;99134.03;5072746;28;20125;-60
2021/05/30 02:56:03;;;;;;;435.13;242.30;;;;;;;9.92;70.61;99128.91;5068029;28;20262;-61
2021/05/30 02:58:29;;;;;;;434.37;241.07;;;;;;;9.96;70.06;99135.69;5067075;28;20275;-60
2021/05/30 03:00:55;;;;;;;432.53;235.30;;;;;;;10.00;70.08;99131.38;5068716;28;20266;-60
2021/05/30 03:03:22;;;;;;;435.27;245.00;;;;;;;9.98;70.12;99133.09;5067873;28;20735;-61
2021/05/30 03:05:47;;;;;;;433.20;247.33;;;;;;;9.91;70.40;99136.59;5068765;28;20271;-60
2021/05/30 03:08:12;;;;;;;434.73;242.90;;;;;;;9.90;70.66;99135.72;5067905;28;20265;-60
2021/05/30 03:10:38;;;;;;;433.53;245.37;;;;;;;9.92;70.66;99130.59;5068291;28;20029;-60
2021/05/30 03:13:04;;;;;;;437.10;244.43;;;;;;;9.96;70.32;99130.56;5066913;28;20595;-60
2021/05/30 03:15:29;;;;;;;438.90;254.13;;;;;;;9.84;70.62;99130.69;5069850;28;20036;-61
2021/05/30 03:17:55;;;;;;;435.97;249.20;;;;;;;9.83;70.84;99138.34;5069339;28;20040;-60
2021/05/30 03:20:21;;;;;;;436.20;245.10;;;;;;;9.76;71.74;99129.84;5070719;28;20035;-61
2021/05/30 03:22:46;;;;;;;436.13;247.93;;;;;;;9.79;71.80;99132.41;5065999;28;20023;-62
2021/05/30 03:25:13;;;;;;;435.30;251.57;;;;;;;9.76;71.70;99132.41;5067055;28;20090;-62
2021/05/30 03:27:39;;;;;;;438.57;252.77;;;;;;;9.75;72.16;99130.75;5069164;28;20039;-61
2021/05/30 03:30:05;;;;;;;432.93;236.80;;;;;;;9.74;72.35;99125.63;5071670;28;20271;-62
2021/05/30 03:32:30;;;;;;;436.03;251.73;;;;;;;9.69;73.09;99128.22;5068496;28;20028;-61
2021/05/30 03:34:56;;;;;;;437.37;251.57;;;;;;;9.71;72.41;99128.22;5070583;28;20289;-61
2021/05/30 03:37:21;;;;;;;436.73;244.93;;;;;;;9.75;72.68;99125.63;5069212;28;20021;-63
2021/05/30 03:39:48;;;;;;;446.77;259.57;;;;;;;9.75;73.04;99125.63;5068002;28;20043;-63
2021/05/30 03:42:22;;;;;;;432.47;237.67;;;;;;;9.93;72.88;99124.63;5067955;28;20031;-63
2021/05/30 03:44:48;;;;;;;434.40;239.03;;;;;;;10.01;71.96;99120.28;5068358;28;20568;-63
2021/05/30 03:47:14;;;;;;;435.03;241.10;;;;;;;10.14;71.61;99121.88;5068156;28;20271;-62
2021/05/30 03:49:40;;;;;;;429.83;229.23;;;;;;;10.28;71.09;99114.91;5068520;28;20346;-63
2021/05/30 03:52:07;;;;;;;435.10;239.50;;;;;;;10.37;70.51;99109.69;5070542;28;20067;-63
2021/05/30 03:54:33;;;;;;;433.33;243.80;;;;;;;10.53;69.59;99112.94;5057692;28;20287;-63
2021/05/30 03:56:58;;;;;;;435.13;252.50;;;;;;;10.65;69.95;99117.91;5067531;28;20413;-62
2021/05/30 03:59:24;;;;;;;444.60;256.40;;;;;;;10.68;69.13;99122.19;5067241;28;20024;-63
2021/05/30 04:01:49;;;;;;;439.90;259.93;;;;;;;10.62;69.34;99119.69;5068673;28;20016;-62
2021/05/30 04:04:15;;;;;;;447.87;265.37;;;;;;;10.53;70.02;99116.34;5068037;28;20032;-62
2021/05/30 04:06:40;;;;;;;442.93;259.60;;;;;;;10.54;69.67;99118.06;5068977;28;20081;-62
2021/05/30 04:09:06;;;;;;;444.33;265.90;;;;;;;10.50;69.97;99112.97;5060252;28;20029;-62
2021/05/30 04:11:31;;;;;;;443.90;257.23;;;;;;;10.47;70.46;99138.66;5068382;28;20025;-62
2021/05/30 04:13:57;;;;;;;439.77;251.50;;;;;;;10.40;71.20;99145.53;5064736;28;20285;-62
2021/05/30 04:16:22;;;;;;;437.80;248.90;;;;;;;10.31;72.34;99132.00;5059266;28;20333;-62
2021/05/30 04:18:47;;;;;;;440.47;258.30;;;;;;;10.28;73.52;99143.09;5068406;28;20051;-61
2021/05/30 04:21:13;;;;;;;437.43;246.37;;;;;;;10.27;72.60;99154.22;5065808;28;20385;-61
2021/05/30 04:23:38;;;;;;;440.93;257.63;;;;;;;10.30;73.05;99151.63;5057108;28;20645;-61
2021/05/30 04:26:04;;;;;;;440.67;249.80;;;;;;;10.34;73.20;99142.22;5065392;28;20044;-62
2021/05/30 04:28:29;;;;;;;433.83;241.40;;;;;;;10.30;73.07;99150.78;5066616;28;20039;-62
2021/05/30 04:30:55;;;;;;;437.47;256.57;;;;;;;10.29;73.35;99149.09;5058854;28;20029;-62
2021/05/30 04:33:21;;;;;;;433.23;237.87;;;;;;;10.21;73.82;99149.16;5065558;28;20037;-62
2021/05/30 04:35:46;;;;;;;433.43;245.83;;;;;;;10.20;73.70;99159.41;5065944;28;20021;-62
2021/05/30 04:38:11;;;;;;;436.97;250.37;;;;;;;10.21;74.50;99156.00;5066778;28;20095;-61
2021/05/30 04:40:37;;;;;;;436.60;250.07;;;;;;;10.21;75.15;99161.13;5066224;28;20475;-62
2021/05/30 04:43:02;;;;;;;434.00;244.07;;;;;;;10.14;75.62;99162.00;5065351;28;20061;-62
2021/05/30 04:45:28;;;;;;;433.23;238.83;;;;;;;10.19;75.81;99157.69;5066618;28;20040;-62
2021/05/30 04:47:53;;;;;;;440.07;249.87;;;;;;;10.25;74.35;99160.22;5067234;28;20357;-61
2021/05/30 04:50:19;;;;;;;442.53;254.10;;;;;;;10.30;74.82;99161.91;5066229;28;20049;-62
2021/05/30 04:52:44;;;;;;;434.73;243.33;;;;;;;10.28;75.26;99166.16;5066793;28;20025;-62
2021/05/30 04:55:11;;;;;;;438.93;249.87;;;;;;;10.28;75.79;99170.44;5067314;28;20115;-61
2021/05/30 04:57:38;;;;;;;439.87;251.27;;;;;;;10.28;75.33;99165.31;5056930;28;20056;-62
2021/05/30 05:00:05;;;;;;;436.77;249.17;;;;;;;10.36;75.99;99172.06;5058951;28;20399;-62
2021/05/30 05:02:31;;;;;;;432.90;240.80;;;;;;;10.39;75.44;99171.22;5067073;28;20271;-62
2021/05/30 05:04:56;;;;;;;436.73;248.33;;;;;;;10.34;75.71;99175.53;5056309;28;20290;-62
2021/05/30 05:07:22;;;;;;;434.60;245.67;;;;;;;10.37;75.75;99170.34;5066899;28;20108;-62
2021/05/30 05:09:47;;;;;;;443.40;263.93;;;;;;;10.36;76.32;99171.22;5066946;28;20029;-62
2021/05/30 05:12:13;;;;;;;437.97;241.13;;;;;;;10.30;76.92;99178.97;5066601;28;20423;-62
2021/05/30 05:14:38;;;;;;;443.50;260.67;;;;;;;10.25;77.38;99168.75;5060368;28;20033;-62
2021/05/30 05:17:04;;;;;;;439.67;246.10;;;;;;;10.26;76.61;99174.75;5067840;28;20056;-62
2021/05/30 05:19:30;;;;;;;441.00;259.17;;;;;;;10.32;76.85;99169.53;5058829;28;20111;-62
2021/05/30 05:21:55;;;;;;;438.63;253.03;;;;;;;10.38;76.53;99165.22;5065928;28;20270;-62
2021/05/30 05:24:20;;;;;;;438.53;258.57;;;;;;;10.42;76.79;99166.03;5068868;28;20036;-62
2021/05/30 05:26:46;;;;;;;438.27;256.20;;;;;;;10.33;77.57;99154.16;5054019;28;20078;-62
2021/05/30 05:29:11;;;;;;;439.97;255.47;;;;;;;10.37;77.72;99163.53;5066094;28;20028;-62
2021/05/30 05:31:37;;;;;;;435.83;247.30;;;;;;;10.41;77.12;99166.91;5066267;28;20037;-62
2021/05/30 05:34:02;;;;;;;435.30;247.70;;;;;;;10.56;77.82;99159.06;5067376;28;20028;-62
2021/05/30 05:36:28;;;;;;;435.47;251.27;;;;;;;10.50;77.18;99165.09;5064224;28;20044;-62
2021/05/30 05:38:53;;;;;;;438.23;251.97;;;;;;;10.62;77.15;99168.38;5064414;28;20036;-62
2021/05/30 05:41:18;;;;;;;436.87;258.77;;;;;;;10.61;77.25;99162.41;5059090;28;20936;-62
2021/05/30 05:43:44;;;;;;;438.20;264.37;;;;;;;10.53;77.21;99159.09;5057824;28;20287;-63
2021/05/30 05:46:09;;;;;;;442.90;265.27;;;;;;;10.56;77.40;99163.34;5053310;28;20033;-62
2021/05/30 05:48:35;;;;;;;434.87;254.50;;;;;;;10.50;78.00;99169.38;5067693;28;20106;-62
2021/05/30 05:51:00;;;;;;;438.60;257.50;;;;;;;10.59;76.66;99179.53;5070938;28;20060;-62
2021/05/30 05:53:26;;;;;;;440.13;265.77;;;;;;;10.65;75.17;99174.34;5071792;28;20039;-62
2021/05/30 05:55:51;;;;;;;441.17;267.77;;;;;;;10.73;73.17;99175.13;5065596;28;20025;-62
2021/05/30 05:58:18;;;;;;;440.10;268.27;;;;;;;10.99;74.72;99173.09;5070365;28;20086;-62
2021/05/30 06:00:44;;;;;;;446.30;277.60;;;;;;;11.05;75.39;99181.59;5070525;28;20028;-62
2021/05/30 06:03:10;;;;;;;441.70;263.97;;;;;;;11.17;75.97;99184.00;5068444;28;20270;-62
2021/05/30 06:05:35;;;;;;;440.43;265.97;;;;;;;11.12;74.77;99185.78;5070662;28;20287;-62
2021/05/30 06:08:01;;;;;;;441.80;266.77;;;;;;;11.05;75.18;99179.03;5072305;28;20139;-62
2021/05/30 06:10:27;;;;;;;442.87;276.23;;;;;;;11.13;75.66;99183.19;5068081;28;20116;-62
2021/05/30 06:12:58;;;;;;;442.17;273.77;;;;;;;11.16;75.68;99183.16;5068843;28;20032;-62
2021/05/30 06:15:26;;;;;;;446.03;280.87;;;;;;;11.13;75.25;99185.75;5058328;28;20298;-62
2021/05/30 06:18:11;;;;;;;440.77;268.73;;;;;;;11.26;75.31;99189.88;5056980;28;20251;-61
2021/05/30 06:20:37;;;;;;;450.80;291.45;;;;;;;11.27;75.08;99189.00;5067894;28;20324;-62
2021/05/30 06:23:03;;;;;;;446.90;293.77;;;;;;;11.28;74.56;99195.00;5069514;28;20036;-60
2021/05/30 06:25:29;;;;;;;448.97;299.93;;;;;;;11.33;74.67;99183.78;5068831;28;20321;-62
2021/05/30 06:27:57;;;;;;;446.00;287.80;;;;;;;11.37;74.00;99185.44;5062311;28;20373;-62
2021/05/30 06:30:24;;;;;;;445.63;281.97;;;;;;;11.35;73.18;99170.94;5067869;28;20290;-61
2021/05/30 06:32:49;;;;;;;445.37;283.23;;;;;;;11.53;73.73;99172.41;5061150;28;20294;-61
2021/05/30 06:35:15;;;;;;;445.43;291.47;;;;;;;11.39;72.72;99175.16;5068954;28;20290;-61
2021/05/30 06:37:40;;;;;;;449.70;297.47;;;;;;;11.36;72.69;99177.78;5068763;28;20028;-62
2021/05/30 06:40:06;;;;;;;445.23;291.47;;;;;;;11.37;71.99;99182.03;5069272;28;20094;-61
2021/05/30 06:42:32;;;;;;;449.93;287.43;;;;;;;11.44;72.75;99178.50;5060602;28;20016;-62
2021/05/30 06:44:58;;;;;;;448.37;292.57;;;;;;;11.44;71.56;99181.09;5069986;28;20051;-61
2021/05/30 06:47:23;;;;;;;453.67;297.33;;;;;;;11.57;71.98;99185.19;5059960;28;20064;-60
2021/05/30 06:49:49;;;;;;;450.93;292.67;;;;;;;11.50;72.12;99180.97;5066880;28;20048;-61
2021/05/30 06:52:14;;;;;;;448.60;283.93;;;;;;;11.61;72.27;99178.28;5067880;28;20028;-61
2021/05/30 06:54:40;;;;;;;448.60;298.03;;;;;;;11.60;71.61;99177.44;5051664;28;20040;-62
2021/05/30 06:57:06;;;;;;;449.00;291.27;;;;;;;11.80;71.16;99188.28;5055051;28;20029;-62
2021/05/30 06:59:31;;;;;;;452.77;310.57;;;;;;;12.07;70.35;99186.16;5064304;28;20032;-61
2021/05/30 07:01:57;;;;;;;452.50;309.50;;;;;;;12.03;69.63;99187.09;5063351;28;20024;-61
2021/05/30 07:04:26;;;;;;;449.53;303.87;;;;;;;12.03;69.61;99180.22;5067073;28;20028;-62
2021/05/30 07:06:51;;;;;;;456.57;322.47;;;;;;;12.14;70.49;99183.47;5066304;28;20617;-62
2021/05/30 07:09:17;;;;;;;452.13;309.30;;;;;;;11.93;65.80;99185.53;5067307;28;20376;-61
2021/05/30 07:11:42;;;;;;;456.03;313.40;;;;;;;11.92;64.42;99182.13;5066978;28;20324;-61
2021/05/30 07:14:08;;;;;;;451.00;317.10;;;;;;;11.81;63.85;99174.56;5061220;28;20052;-61
2021/05/30 07:16:33;;;;;;;450.20;308.40;;;;;;;12.05;64.59;99190.50;5059661;28;20052;-61
2021/05/30 07:18:59;;;;;;;455.43;317.70;;;;;;;12.33;62.12;99171.16;5066333;28;20385;-61
2021/05/30 07:21:24;;;;;;;451.13;315.77;;;;;;;12.73;61.13;99179.00;5067522;28;20415;-61
2021/05/30 07:23:50;;;;;;;455.10;331.93;;;;;;;12.98;60.68;99176.81;5069648;28;20396;-61
2021/05/30 07:26:16;;;;;;;458.10;339.73;;;;;;;13.43;61.22;99167.31;5064686;28;20038;-62
2021/05/30 07:28:44;;;;;;;461.10;347.80;;;;;;;13.80;59.30;99178.47;5059355;28;20384;-62
2021/05/30 07:31:10;;;;;;;468.57;370.57;;;;;;;14.12;57.35;99172.56;5066884;28;20082;-61
2021/05/30 07:33:36;;;;;;;467.30;380.90;;;;;;;14.25;58.41;99170.53;5054932;28;20051;-62
2021/05/30 07:36:03;;;;;;;465.93;379.87;;;;;;;14.07;55.82;99166.66;5070905;28;20017;-62
2021/05/30 07:38:28;;;;;;;468.83;387.80;;;;;;;14.10;55.60;99164.84;5053909;28;20093;-62
2021/05/30 07:40:54;;;;;;;473.57;396.10;;;;;;;14.29;55.53;99161.81;5067978;28;20071;-61
2021/05/30 07:43:20;;;;;;;470.97;409.50;;;;;;;14.39;53.58;99164.16;5069633;28;20027;-62
2021/05/30 07:45:45;;;;;;;470.67;408.93;;;;;;;14.03;54.31;99165.03;5065292;28;20436;-62
2021/05/30 07:48:11;;;;;;;471.07;404.40;;;;;;;13.89;54.39;99170.53;5062921;28;20026;-62
2021/05/30 07:50:37;;;;;;;466.33;387.07;;;;;;;13.94;53.38;99162.69;5060129;28;20436;-61
2021/05/30 07:53:03;;;;;;;470.33;399.67;;;;;;;13.79;53.62;99160.47;5065659;28;20130;-61
2021/05/30 07:55:29;;;;;;;463.27;386.63;;;;;;;13.58;52.58;99162.66;5058723;28;20029;-62
2021/05/30 07:57:55;;;;;;;469.87;394.00;;;;;;;13.77;53.05;99172.53;5068293;28;20021;-61
2021/05/30 08:00:21;;;;;;;467.30;392.90;;;;;;;14.11;52.39;99169.13;5068098;28;20047;-62
2021/05/30 08:02:47;;;;;;;464.30;381.93;;;;;;;14.18;51.35;99168.09;5070094;28;20317;-62
2021/05/30 08:05:18;;;;;;;466.77;394.23;;;;;;;14.53;51.86;99174.09;5066658;28;20029;-61
2021/05/30 08:07:45;;;;;;;466.90;395.37;;;;;;;14.34;51.24;99168.53;5055593;28;20414;-61
2021/05/30 08:10:11;;;;;;;474.80;407.17;;;;;;;13.93;53.04;99173.88;5049965;28;20028;-61
2021/05/30 08:12:37;;;;;;;468.30;397.93;;;;;;;13.67;53.34;99172.75;5067223;28;20028;-61
2021/05/30 08:15:03;;;;;;;463.87;388.87;;;;;;;13.69;54.53;99177.88;5068623;28;20028;-61
2021/05/30 08:17:29;;;;;;;468.03;396.47;;;;;;;13.99;54.53;99181.47;5046899;28;20028;-61
2021/05/30 08:19:55;;;;;;;468.77;390.00;;;;;;;14.29;52.96;99179.88;5059716;28;20435;-61
2021/05/30 08:22:21;;;;;;;468.50;392.37;;;;;;;14.26;53.77;99185.13;5064335;28;20020;-61
2021/05/30 08:24:47;;;;;;;473.90;416.00;;;;;;;14.50;52.97;99175.06;5058481;28;20378;-60
2021/05/30 08:27:14;;;;;;;472.87;413.53;;;;;;;14.87;52.46;99162.00;5064823;28;20029;-61
2021/05/30 08:29:41;;;;;;;472.70;411.43;;;;;;;14.72;51.75;99161.56;5068043;28;20032;-62
2021/05/30 08:32:08;;;;;;;478.87;425.90;;;;;;;14.81;52.34;99166.50;5060424;28;20032;-61
2021/05/30 08:34:34;;;;;;;472.27;411.97;;;;;;;14.82;52.09;99163.00;5058599;28;20058;-62
2021/05/30 08:37:00;;;;;;;482.77;430.00;;;;;;;14.94;53.10;99158.34;5066154;28;20031;-62
2021/05/30 08:39:25;;;;;;;478.73;426.10;;;;;;;14.82;46.93;99168.16;5066242;28;20590;-61
2021/05/30 08:41:51;;;;;;;485.87;433.00;;;;;;;14.49;46.70;99165.59;5061767;28;20028;-62
2021/05/30 08:44:16;;;;;;;470.97;416.73;;;;;;;14.56;47.84;99155.97;5064703;28;20017;-62
2021/05/30 08:46:42;;;;;;;473.93;421.43;;;;;;;14.99;47.88;99159.06;5062140;28;20028;-61
2021/05/30 08:49:09;;;;;;;484.23;431.70;;;;;;;15.13;45.33;99152.66;5060596;28;20056;-60
2021/05/30 08:51:38;;;;;;;480.40;428.03;;;;;;;15.31;46.40;99152.97;5067654;28;20021;-62
2021/05/30 08:54:12;;;;;;;505.97;453.00;;;;;;;15.81;44.75;99154.03;5066095;28;20668;-60
2021/05/30 08:56:40;;;;;;;497.67;444.98;;;;;;;15.60;44.97;99153.88;5059151;28;20423;-61
2021/05/30 08:59:32;;;;;;;491.70;439.13;;;;;;;15.17;42.53;99157.69;5054570;28;20650;-61
2021/05/30 09:02:10;;;;;;;475.37;422.93;;;;;;;14.93;42.57;99146.34;5059133;28;20036;-61
2021/05/30 09:04:42;;;;;;;488.83;435.97;;;;;;;14.92;42.87;99148.97;5059974;28;20059;-61
2021/05/30 09:07:08;;;;;;;493.10;440.40;;;;;;;15.28;43.39;99147.88;5059700;28;20094;-61
2021/05/30 09:09:47;;;;;;;487.30;434.90;;;;;;;15.50;43.66;99135.19;5062613;28;20068;-61
2021/05/30 09:12:20;;;;;;;490.50;437.80;;;;;;;15.50;43.33;99146.38;5067664;28;20036;-61
2021/05/30 09:14:49;;;;;;;489.70;437.07;;;;;;;15.66;43.78;99133.81;5063953;28;20056;-61
2021/05/30 09:17:15;;;;;;;515.03;461.63;;;;;;;15.44;43.46;99137.94;5063376;28;20320;-61
2021/05/30 09:19:44;;;;;;;511.90;459.03;;;;;;;15.38;43.26;99138.97;5066865;28;20024;-61
2021/05/30 09:22:24;;;;;;;544.87;490.00;;;;;;;15.30;42.86;99134.94;5063708;28;20124;-60
2021/05/30 09:24:49;;;;;;;496.73;443.87;;;;;;;15.24;42.93;99137.69;5062873;28;20032;-60
2021/05/30 09:27:15;;;;;;;499.03;446.07;;;;;;;15.16;42.78;99140.50;5068599;28;20142;-61
2021/05/30 09:29:41;;;;;;;508.40;455.47;;;;;;;15.52;42.60;99139.44;5056398;28;20115;-62
2021/05/30 09:32:06;;;;;;;513.03;459.60;;;;;;;15.82;42.43;99142.81;5068854;28;20459;-63
2021/05/30 09:34:36;;;;;;;525.50;471.83;;;;;;;16.16;42.78;99142.56;5070522;28;20044;-62
2021/05/30 09:37:04;;;;;;;526.67;473.20;;;;;;;16.41;43.00;99142.56;5061335;28;20038;-62
2021/05/30 09:39:39;;;;;;;549.13;495.07;;;;;;;16.62;43.30;99133.25;5071219;28;20047;-61
2021/05/30 09:42:36;;;;;;;550.47;496.50;;;;;;;16.63;45.33;99164.25;5068223;28;20159;-61
2021/05/30 09:45:01;;;;;;;542.30;488.47;;;;;;;16.53;47.21;99159.41;5072231;28;20035;-61
2021/05/30 09:47:41;;;;;;;560.73;506.60;;;;;;;16.15;47.98;99168.47;5061810;28;20033;-62
2021/05/30 09:50:12;;;;;;;534.03;480.73;;;;;;;15.40;48.95;99178.53;5072270;28;20112;-61
2021/05/30 09:52:43;;;;;;;538.53;484.93;;;;;;;15.56;49.49;99180.69;5067510;28;20047;-62
2021/05/30 09:55:29;;;;;;;538.27;484.30;;;;;;;15.73;50.36;99188.78;5069531;28;20040;-62
2021/05/30 09:58:04;;;;;;;520.13;466.87;;;;;;;15.48;50.55;99180.91;5068506;28;20124;-60
2021/05/30 10:00:30;;;;;;;518.22;465.27;;;;;;;15.39;50.75;99179.44;5067321;28;20082;-61
2021/05/30 10:02:56;;;;;;;521.77;468.23;;;;;;;15.24;51.60;99191.94;5068575;28;20334;-60
2021/05/30 10:05:22;;;;;;;518.93;465.40;;;;;;;15.05;52.59;99191.63;5067173;28;20063;-60
2021/05/30 10:07:48;;;;;;;512.83;459.67;;;;;;;14.79;53.16;99194.06;5071363;28;20051;-60
2021/05/30 10:10:14;;;;;;;510.20;457.13;;;;;;;15.03;53.82;99193.38;5070093;28;20063;-61
2021/05/30 10:12:41;;;;;;;502.67;449.67;;;;;;;15.22;53.09;99204.91;5073541;28;20036;-60
2021/05/30 10:15:08;;;;;;;496.20;443.67;;;;;;;15.00;54.31;99204.66;5062741;28;20100;-64
2021/05/30 10:17:35;;;;;;;506.27;453.17;;;;;;;15.34;53.51;99209.72;5054627;28;20028;-60
2021/05/30 10:20:02;;;;;;;503.37;450.30;;;;;;;15.01;52.90;99215.84;5067892;28;20420;-60
2021/05/30 10:22:29;;;;;;;475.00;422.57;;;;;;;14.50;54.24;99205.16;5066514;28;20052;-61
2021/05/30 10:24:55;;;;;;;479.37;427.10;;;;;;;14.72;54.40;99218.34;5064240;28;20033;-61
2021/05/30 10:27:29;;;;;;;469.63;413.07;;;;;;;14.54;52.79;99207.63;5068878;28;20016;-62
2021/05/30 10:30:16;;;;;;;468.40;412.20;;;;;;;14.34;53.29;99222.69;5061011;28;20600;-61
2021/05/30 10:32:41;;;;;;;473.50;417.10;;;;;;;14.48;52.24;99210.34;5071740;28;20115;-62
2021/05/30 10:35:07;;;;;;;469.17;417.03;;;;;;;14.42;52.98;99210.53;5063041;28;20119;-61
2021/05/30 10:37:39;;;;;;;468.93;414.20;;;;;;;14.72;53.15;99202.88;5072882;28;20028;-62
2021/05/30 10:40:25;;;;;;;471.50;411.53;;;;;;;15.13;52.14;99205.16;5058242;28;20030;-62
2021/05/30 10:43:08;;;;;;;482.17;429.52;;;;;;;15.25;51.86;99209.97;5060460;28;20283;-62
2021/05/30 10:45:57;;;;;;;491.43;439.13;;;;;;;15.14;50.98;99214.63;5072206;28;20476;-61
2021/05/30 10:48:23;;;;;;;508.07;454.63;;;;;;;15.12;50.39;99212.94;5071944;28;20033;-61
2021/05/30 10:53:36;;;;;;;508.03;454.87;;;;;;;15.13;50.19;99207.75;5069836;28;20455;-60
2021/05/30 10:56:34;;;;;;;486.60;434.23;;;;;;;15.33;49.73;99205.44;5070720;28;20033;-60
2021/05/30 10:59:06;;;;;;;499.37;446.67;;;;;;;15.48;49.14;99217.94;5050932;28;20116;-60
2021/05/30 11:01:55;;;;;;;505.67;452.90;;;;;;;15.65;49.38;99214.88;5070326;28;20078;-60
2021/05/30 11:04:26;;;;;;;528.13;474.50;;;;;;;15.90;49.57;99213.22;5066498;28;20045;-60
2021/05/30 11:07:20;;;;;;;529.97;476.37;;;;;;;15.95;48.58;99218.25;5061464;28;20040;-61
2021/05/30 11:09:48;;;;;;;554.10;499.87;;;;;;;16.18;47.46;99220.94;5062055;28;20060;-60